Westerdam — PINX — position and weather

sailwx.info

Track history (hours):
 
Tides and Currents Weather Stations Pressure Air Temp Water Temp Dewpoint Dewpoint Depression Visibility Wind Speed Wind Dir Waves Ship Positions

Westerdam

Operator: Holland America Line

Last reported at 2017-May-27 01:00 UTC. Time now 2017-May-27 02:18 UTC.
Position N 37°30' E 021°18'.

Type: Passenger vessel. MMSI: 244128000.

Wind from 060 at 9 knots

Barometer 1012.2 mb
Air temperature 19.2 ° C
Visibility: greater than 10.8 NM
Dewpoint 14.2 ° C
Water temperature 21.0 ° C

Date/timePositionNaut miles runAvg speedWind from/ knotsBaromVisibWave heightAir tempDewpointWater temp
2017-May-27 01:00N 37°30' E 021°18'43 6.2 060 / 91012.210.8 19.214.221.0
2017-May-26 18:00N 37°36' E 020°24'90 3.9 270 / 161012.210.8 17.212.321.0
2017-May-25 19:00N 39°06' E 020°18'115 5.0 300 / 191012.710.8 19.014.721.0
2017-May-24 20:00N 40°30' E 018°36'4115.6 260 / 61016.110.8 19.815.020.0
2017-May-24 17:21N 41°00' E 017°59'5014.8
2017-May-24 14:00N 41°30' E 017°06'2914.4 010 / 51015.510.8 21.816.318.8
2017-May-24 12:00N 41°48' E 016°36'15715.6 020 / 51016.510.8 23.818.218.8
2017-May-24 01:57N 43°48' E 014°19'2115.8
2017-May-24 00:36N 44°05' E 014°02'215.8
2017-May-24 00:30N 44°07' E 014°01'815.9
2017-May-24 00:00N 44°13' E 013°55'815.7
2017-May-23 23:29N 44°20' E 013°49'715.7
2017-May-23 23:00N 44°27' E 013°43'815.2
2017-May-23 22:30N 44°33' E 013°37'714.8
2017-May-23 22:00N 44°39' E 013°32'714.3
2017-May-23 21:31N 44°45' E 013°26'714.3
2017-May-23 21:00N 44°51' E 013°20'714.1
2017-May-23 20:30N 44°57' E 013°15'713.9
2017-May-23 20:00N 45°03' E 013°09'713.7
2017-May-23 19:30N 45°08' E 013°04'713.5
2017-May-23 19:00N 45°14' E 012°58'611.5
2017-May-23 18:30N 45°18' E 012°52'510.3
2017-May-23 18:00N 45°21' E 012°46'713.1
2017-May-23 17:30N 45°22' E 012°37'713.1
2017-May-23 17:00N 45°24' E 012°28'4 8.4
2017-May-23 16:30N 45°26' E 012°23'3 5.2
2017-May-23 16:00N 45°26' E 012°19'0 0.9
2017-May-23 15:28N 45°26' E 012°19'0 0.0
2017-May-23 14:58N 45°26' E 012°19'0 0.0
2017-May-23 14:28N 45°26' E 012°19'0 0.0
2017-May-23 13:28N 45°26' E 012°19'0 0.0
2017-May-23 12:58N 45°26' E 012°19'0 0.0
2017-May-23 12:28N 45°26' E 012°19'0 0.0
2017-May-23 11:55N 45°26' E 012°19'0 0.0
2017-May-23 11:28N 45°26' E 012°19'0 0.0
2017-May-23 10:58N 45°26' E 012°19'0 0.0
2017-May-23 10:28N 45°26' E 012°19'0 0.0
2017-May-23 09:58N 45°26' E 012°19'0 0.0
2017-May-23 09:28N 45°26' E 012°19'0 0.0
2017-May-23 08:58N 45°26' E 012°19'0 0.0
2017-May-23 08:28N 45°26' E 012°19'0 0.0
2017-May-23 07:58N 45°26' E 012°19'0 0.0
2017-May-23 07:28N 45°26' E 012°19'0 0.0
2017-May-23 06:58N 45°26' E 012°19'0 0.0
2017-May-23 06:28N 45°26' E 012°19'0 0.0
2017-May-23 05:58N 45°26' E 012°19'0 0.0
2017-May-23 05:28N 45°26' E 012°19'0 0.0
2017-May-23 04:58N 45°26' E 012°19'0 0.0
2017-May-23 04:28N 45°26' E 012°19'0 0.8
2017-May-23 04:00N 45°26' E 012°18'2 4.3
2017-May-23 03:30N 45°26' E 012°21'4 7.3
2017-May-23 03:00N 45°25' E 012°26'5 9.2
2017-May-23 02:30N 45°22' E 012°32'5 9.3
2017-May-23 02:01N 45°18' E 012°32'612.6
2017-May-23 01:30N 45°14' E 012°39'815.5
2017-May-23 01:01N 45°09' E 012°47'815.1
2017-May-23 00:30N 45°02' E 012°53'815.1
2017-May-23 00:00N 44°55' E 012°57'714.0
2017-May-22 23:30N 44°48' E 012°55'713.9
2017-May-22 23:00N 44°43' E 012°49'713.4
2017-May-22 22:30N 44°37' E 012°44'711.2
2017-May-22 21:50N 44°31' E 012°39'410.7
2017-May-22 21:29N 44°30' E 012°34'511.0
2017-May-22 21:00N 44°30' E 012°26'2101.1
2017-May-22 21:00N 44°30' E 012°24'5 7.2 130 / 91016.110.8 20.815.318.8
2017-May-22 20:22N 44°30' E 012°18'0 0.8
2017-May-22 19:54N 44°30' E 012°17'0 0.0
2017-May-22 19:30N 44°30' E 012°17'0 0.0
2017-May-22 19:00N 44°30' E 012°17'0 0.0
2017-May-22 18:30N 44°30' E 012°17'0 0.0
2017-May-22 18:00N 44°30' E 012°17'0 0.0
2017-May-22 17:30N 44°30' E 012°17'0 0.0
2017-May-22 17:00N 44°30' E 012°17'0 0.0
2017-May-22 16:30N 44°30' E 012°17'0 0.0
2017-May-22 16:00N 44°30' E 012°17'0 0.0
2017-May-22 15:30N 44°30' E 012°17'0 0.0
2017-May-22 15:00N 44°30' E 012°17'0 0.0
2017-May-22 14:30N 44°30' E 012°17'0 0.0
2017-May-22 13:27N 44°30' E 012°17'0 0.0
2017-May-22 11:48N 44°30' E 012°17'0 0.7
2017-May-22 11:30N 44°30' E 012°17'3 6.0
2017-May-22 11:00N 44°30' E 012°22'611.5
2017-May-22 10:30N 44°30' E 012°30'815.2
2017-May-22 10:00N 44°29' E 012°40'917.7
2017-May-22 09:30N 44°25' E 012°51'917.5
2017-May-22 09:00N 44°21' E 013°02'917.8
2017-May-22 08:30N 44°18' E 013°14'27120.0
2017-May-21 19:00N 41°12' E 017°42'34419.1 310 / 271013.310.8 18.816.018.8
2017-May-21 01:00N 36°30' E 021°54'14120.1 290 / 201013.010.8 18.716.518.8
2017-May-20 18:00N 36°18' E 024°48'39 2.1 240 / 311011.210.8 19.116.318.8
2017-May-20 00:00N 36°18' E 024°00'9315.4 010 / 161015.610.8 18.015.318.8
2017-May-19 18:00N 36°30' E 022°06'9716.2 300 / 191016.0 5.4 18.816.019.0
2017-May-19 12:00N 37°30' E 020°30'14015.6 310 / 171016.0 5.4 24.015.819.0
2017-May-19 03:00N 39°36' E 019°12'5620.5 320 / 151015.510.8 18.016.018.0
2017-May-19 00:15N 40°31' E 018°56'416.8
2017-May-19 00:00N 40°35' E 018°55'1110.8
2017-May-19 00:00N 40°36' E 018°54'7915.8 270 / 131015.510.8 18.016.018.0
2017-May-18 19:00N 41°54' E 018°36'20 1.1 320 / 201015.910.8 21.0 9.618.0
2017-May-18 01:00N 42°12' E 018°24'161 6.7 040 / 221016.110.8 21.0 9.618.0
2017-May-17 01:00N 43°12' E 015°00'   030 / 241021.310.8 19.313.918.0
Track history (hours):
 
Tides and Currents Weather Stations Pressure Air Temp Water Temp Dewpoint Dewpoint Depression Visibility Wind Speed Wind Dir Waves Ship Positions

Westerdam

Operator: Holland America Line

Last reported at 2017-May-27 01:00 UTC. Time now 2017-May-27 02:18 UTC.
Position N 37°30' E 021°18'.

Type: Passenger vessel. MMSI: 244128000.

Wind from 060 at 9 knots

Barometer 1012.2 mb
Air temperature 19.2 ° C
Visibility: greater than 10.8 NM
Dewpoint 14.2 ° C
Water temperature 21.0 ° C

Date/timePositionNaut miles runAvg speedWind from/ knotsBaromVisibWave heightAir tempDewpointWater temp
2017-May-27 01:00N 37°30' E 021°18'43 6.2 060 / 91012.210.8 19.214.221.0
2017-May-26 18:00N 37°36' E 020°24'90 3.9 270 / 161012.210.8 17.212.321.0
2017-May-25 19:00N 39°06' E 020°18'115 5.0 300 / 191012.710.8 19.014.721.0
2017-May-24 20:00N 40°30' E 018°36'4115.6 260 / 61016.110.8 19.815.020.0
2017-May-24 17:21N 41°00' E 017°59'5014.8
2017-May-24 14:00N 41°30' E 017°06'2914.4 010 / 51015.510.8 21.816.318.8
2017-May-24 12:00N 41°48' E 016°36'15715.6 020 / 51016.510.8 23.818.218.8
2017-May-24 01:57N 43°48' E 014°19'2115.8
2017-May-24 00:36N 44°05' E 014°02'215.8
2017-May-24 00:30N 44°07' E 014°01'815.9
2017-May-24 00:00N 44°13' E 013°55'815.7
2017-May-23 23:29N 44°20' E 013°49'715.7
2017-May-23 23:00N 44°27' E 013°43'815.2
2017-May-23 22:30N 44°33' E 013°37'714.8
2017-May-23 22:00N 44°39' E 013°32'714.3
2017-May-23 21:31N 44°45' E 013°26'714.3
2017-May-23 21:00N 44°51' E 013°20'714.1
2017-May-23 20:30N 44°57' E 013°15'713.9
2017-May-23 20:00N 45°03' E 013°09'713.7
2017-May-23 19:30N 45°08' E 013°04'713.5
2017-May-23 19:00N 45°14' E 012°58'611.5
2017-May-23 18:30N 45°18' E 012°52'510.3
2017-May-23 18:00N 45°21' E 012°46'713.1
2017-May-23 17:30N 45°22' E 012°37'713.1
2017-May-23 17:00N 45°24' E 012°28'4 8.4
2017-May-23 16:30N 45°26' E 012°23'3 5.2
2017-May-23 16:00N 45°26' E 012°19'0 0.9
2017-May-23 15:28N 45°26' E 012°19'0 0.0
2017-May-23 14:58N 45°26' E 012°19'0 0.0
2017-May-23 14:28N 45°26' E 012°19'0 0.0
2017-May-23 13:28N 45°26' E 012°19'0 0.0
2017-May-23 12:58N 45°26' E 012°19'0 0.0
2017-May-23 12:28N 45°26' E 012°19'0 0.0
2017-May-23 11:55N 45°26' E 012°19'0 0.0
2017-May-23 11:28N 45°26' E 012°19'0 0.0
2017-May-23 10:58N 45°26' E 012°19'0 0.0
2017-May-23 10:28N 45°26' E 012°19'0 0.0
2017-May-23 09:58N 45°26' E 012°19'0 0.0
2017-May-23 09:28N 45°26' E 012°19'0 0.0
2017-May-23 08:58N 45°26' E 012°19'0 0.0
2017-May-23 08:28N 45°26' E 012°19'0 0.0
2017-May-23 07:58N 45°26' E 012°19'0 0.0
2017-May-23 07:28N 45°26' E 012°19'0 0.0
2017-May-23 06:58N 45°26' E 012°19'0 0.0
2017-May-23 06:28N 45°26' E 012°19'0 0.0
2017-May-23 05:58N 45°26' E 012°19'0 0.0
2017-May-23 05:28N 45°26' E 012°19'0 0.0
2017-May-23 04:58N 45°26' E 012°19'0 0.0
2017-May-23 04:28N 45°26' E 012°19'0 0.8
2017-May-23 04:00N 45°26' E 012°18'2 4.3
2017-May-23 03:30N 45°26' E 012°21'4 7.3
2017-May-23 03:00N 45°25' E 012°26'5 9.2
2017-May-23 02:30N 45°22' E 012°32'5 9.3
2017-May-23 02:01N 45°18' E 012°32'612.6
2017-May-23 01:30N 45°14' E 012°39'815.5
2017-May-23 01:01N 45°09' E 012°47'815.1
2017-May-23 00:30N 45°02' E 012°53'815.1
2017-May-23 00:00N 44°55' E 012°57'714.0
2017-May-22 23:30N 44°48' E 012°55'713.9
2017-May-22 23:00N 44°43' E 012°49'713.4
2017-May-22 22:30N 44°37' E 012°44'711.2
2017-May-22 21:50N 44°31' E 012°39'410.7
2017-May-22 21:29N 44°30' E 012°34'511.0
2017-May-22 21:00N 44°30' E 012°26'2101.1
2017-May-22 21:00N 44°30' E 012°24'5 7.2 130 / 91016.110.8 20.815.318.8
2017-May-22 20:22N 44°30' E 012°18'0 0.8
2017-May-22 19:54N 44°30' E 012°17'0 0.0
2017-May-22 19:30N 44°30' E 012°17'0 0.0
2017-May-22 19:00N 44°30' E 012°17'0 0.0
2017-May-22 18:30N 44°30' E 012°17'0 0.0
2017-May-22 18:00N 44°30' E 012°17'0 0.0
2017-May-22 17:30N 44°30' E 012°17'0 0.0
2017-May-22 17:00N 44°30' E 012°17'0 0.0
2017-May-22 16:30N 44°30' E 012°17'0 0.0
2017-May-22 16:00N 44°30' E 012°17'0 0.0
2017-May-22 15:30N 44°30' E 012°17'0 0.0
2017-May-22 15:00N 44°30' E 012°17'0 0.0
2017-May-22 14:30N 44°30' E 012°17'0 0.0
2017-May-22 13:27N 44°30' E 012°17'0 0.0
2017-May-22 11:48N 44°30' E 012°17'0 0.7
2017-May-22 11:30N 44°30' E 012°17'3 6.0
2017-May-22 11:00N 44°30' E 012°22'611.5
2017-May-22 10:30N 44°30' E 012°30'815.2
2017-May-22 10:00N 44°29' E 012°40'917.7
2017-May-22 09:30N 44°25' E 012°51'917.5
2017-May-22 09:00N 44°21' E 013°02'917.8
2017-May-22 08:30N 44°18' E 013°14'27120.0
2017-May-21 19:00N 41°12' E 017°42'34419.1 310 / 271013.310.8 18.816.018.8
2017-May-21 01:00N 36°30' E 021°54'14120.1 290 / 201013.010.8 18.716.518.8
2017-May-20 18:00N 36°18' E 024°48'39 2.1 240 / 311011.210.8 19.116.318.8
2017-May-20 00:00N 36°18' E 024°00'9315.4 010 / 161015.610.8 18.015.318.8
2017-May-19 18:00N 36°30' E 022°06'9716.2 300 / 191016.0 5.4 18.816.019.0
2017-May-19 12:00N 37°30' E 020°30'14015.6 310 / 171016.0 5.4 24.015.819.0
2017-May-19 03:00N 39°36' E 019°12'5620.5 320 / 151015.510.8 18.016.018.0
2017-May-19 00:15N 40°31' E 018°56'416.8
2017-May-19 00:00N 40°35' E 018°55'1110.8
2017-May-19 00:00N 40°36' E 018°54'7915.8 270 / 131015.510.8 18.016.018.0
2017-May-18 19:00N 41°54' E 018°36'20 1.1 320 / 201015.910.8 21.0 9.618.0
2017-May-18 01:00N 42°12' E 018°24'161 6.7 040 / 221016.110.8 21.0 9.618.0
2017-May-17 01:00N 43°12' E 015°00'   030 / 241021.310.8 19.313.918.0

Dump ship's entire track history